DBBB

Cadjehoun Airport

Cotonou, Benin
METAR DBBB 161400Z 20011KT 8000 FEW013 31/26 Q1008 NOSIG
Observed Flight Rules
Dec-16 @ 14:00 UTC (41 minutes ago) Marginal Visual Flight Rules
Wind Visibility Clouds
200° at 11 knots 7,998 meters
  • Few at 1,300' AGL
Temperatures Readings
Current 31°C / 88°F
Dewpoint 26°C / 79°F
Humidity 75%
Altimeter 29.76" Hg
Pressure 1008 hPa
Elevation 9
METAR DBBB 161400Z 20011KT 8000 FEW013 31/26 Q1008 NOSIG
Observed Flight Rules
Dec-16 @ 14:00 UTC
(41 minutes ago)
MVFR
Wind Visibility
200° at 11 knots 7,998 meters
Clouds
  • Few at 1,300' AGL
Temperature Dewpoint
31°C / 88°F 26°C / 79°F
Humidity Altimeter Pressure
75% 29.76" Hg 1008 hPa